sensor_id;sensor_type;location;lat;lon;timestamp;P1;durP1;ratioP1;P2;durP2;ratioP2
3815;SDS011;1923;48.154;11.536;2023-03-09T10:14:05;5.50;;;1.13;;
3815;SDS011;1923;48.154;11.536;2023-03-09T10:16:41;3.83;;;1.30;;
3815;SDS011;1923;48.154;11.536;2023-03-09T10:19:13;3.30;;;0.83;;
3815;SDS011;1923;48.154;11.536;2023-03-09T10:21:44;1.17;;;0.83;;
3815;SDS011;1923;48.154;11.536;2023-03-09T10:24:19;4.60;;;0.80;;
3815;SDS011;1923;48.154;11.536;2023-03-09T10:26:50;2.80;;;1.03;;
3815;SDS011;1923;48.154;11.536;2023-03-09T10:29:27;2.50;;;1.60;;
3815;SDS011;1923;48.154;11.536;2023-03-09T10:32:06;2.20;;;1.00;;
3815;SDS011;1923;48.154;11.536;2023-03-09T10:34:46;2.97;;;0.87;;
3815;SDS011;1923;48.154;11.536;2023-03-09T10:37:22;1.63;;;1.07;;
3815;SDS011;1923;48.154;11.536;2023-03-09T10:39:52;1.03;;;0.70;;
3815;SDS011;1923;48.154;11.536;2023-03-09T10:42:21;1.87;;;0.93;;
3815;SDS011;1923;48.154;11.536;2023-03-09T10:45:00;2.30;;;1.53;;
3815;SDS011;1923;48.154;11.536;2023-03-09T10:47:55;6.30;;;1.20;;
3815;SDS011;1923;48.154;11.536;2023-03-09T10:50:25;1.97;;;0.70;;
3815;SDS011;1923;48.154;11.536;2023-03-09T10:52:55;1.90;;;0.67;;
3815;SDS011;1923;48.154;11.536;2023-03-09T10:55:29;4.80;;;0.80;;
3815;SDS011;1923;48.154;11.536;2023-03-09T10:58:06;2.20;;;0.70;;
3815;SDS011;1923;48.154;11.536;2023-03-09T11:00:50;2.78;;;0.80;;
3815;SDS011;1923;48.154;11.536;2023-03-09T11:03:22;1.20;;;0.70;;
3815;SDS011;1923;48.154;11.536;2023-03-09T11:05:52;1.43;;;0.80;;
3815;SDS011;1923;48.154;11.536;2023-03-09T11:08:21;2.67;;;0.73;;
3815;SDS011;1923;48.154;11.536;2023-03-09T11:11:02;2.03;;;0.83;;
3815;SDS011;1923;48.154;11.536;2023-03-09T11:13:32;2.30;;;0.70;;
3815;SDS011;1923;48.154;11.536;2023-03-09T11:16:12;3.77;;;0.77;;
3815;SDS011;1923;48.154;11.536;2023-03-09T11:19:03;2.20;;;0.80;;
3815;SDS011;1923;48.154;11.536;2023-03-09T11:21:33;2.03;;;0.80;;
3815;SDS011;1923;48.154;11.536;2023-03-09T11:24:02;2.30;;;0.70;;
3815;SDS011;1923;48.154;11.536;2023-03-09T11:26:44;1.63;;;0.77;;
3815;SDS011;1923;48.154;11.536;2023-03-09T11:29:18;2.13;;;0.60;;
3815;SDS011;1923;48.154;11.536;2023-03-09T11:31:52;2.80;;;1.53;;
3815;SDS011;1923;48.154;11.536;2023-03-09T11:34:21;1.93;;;1.00;;
3815;SDS011;1923;48.154;11.536;2023-03-09T11:36:54;2.40;;;1.03;;
3815;SDS011;1923;48.154;11.536;2023-03-09T11:39:28;1.40;;;0.60;;
3815;SDS011;1923;48.154;11.536;2023-03-09T11:41:59;3.57;;;0.87;;
3815;SDS011;1923;48.154;11.536;2023-03-09T11:44:33;2.20;;;0.80;;
3815;SDS011;1923;48.154;11.536;2023-03-09T11:47:05;2.95;;;0.90;;
3815;SDS011;1923;48.154;11.536;2023-03-09T11:49:40;3.57;;;1.00;;
3815;SDS011;1923;48.154;11.536;2023-03-09T11:52:10;4.50;;;0.80;;
3815;SDS011;1923;48.154;11.536;2023-03-09T11:54:46;1.80;;;0.97;;
3815;SDS011;1923;48.154;11.536;2023-03-09T11:57:19;3.20;;;0.80;;
3815;SDS011;1923;48.154;11.536;2023-03-09T11:59:49;3.57;;;1.37;;
3815;SDS011;1923;48.154;11.536;2023-03-09T12:02:24;3.10;;;0.90;;
3815;SDS011;1923;48.154;11.536;2023-03-09T12:04:56;4.07;;;1.17;;
3815;SDS011;1923;48.154;11.536;2023-03-09T12:07:25;4.13;;;1.20;;
3815;SDS011;1923;48.154;11.536;2023-03-09T12:09:59;5.80;;;1.38;;
3815;SDS011;1923;48.154;11.536;2023-03-09T12:12:33;1.90;;;0.77;;
3815;SDS011;1923;48.154;11.536;2023-03-09T12:15:10;2.23;;;0.80;;
3815;SDS011;1923;48.154;11.536;2023-03-09T12:17:44;2.97;;;0.83;;
3815;SDS011;1923;48.154;11.536;2023-03-09T12:20:19;2.07;;;0.77;;
3815;SDS011;1923;48.154;11.536;2023-03-09T12:22:51;2.65;;;0.80;;
3815;SDS011;1923;48.154;11.536;2023-03-09T12:25:19;2.47;;;0.67;;
3815;SDS011;1923;48.154;11.536;2023-03-09T12:27:50;4.97;;;1.07;;
3815;SDS011;1923;48.154;11.536;2023-03-09T12:30:22;1.10;;;0.80;;
3815;SDS011;1923;48.154;11.536;2023-03-09T12:32:53;1.20;;;0.60;;
3815;SDS011;1923;48.154;11.536;2023-03-09T12:38:25;0.67;;;0.40;;
3815;SDS011;1923;48.154;11.536;2023-03-09T12:40:54;1.70;;;0.70;;
3815;SDS011;1923;48.154;11.536;2023-03-09T12:49:28;2.00;;;0.70;;
3815;SDS011;1923;48.154;11.536;2023-03-09T12:55:14;7.80;;;0.83;;
3815;SDS011;1923;48.154;11.536;2023-03-09T12:57:45;1.13;;;0.60;;
3815;SDS011;1923;48.154;11.536;2023-03-09T13:00:27;2.73;;;1.00;;
3815;SDS011;1923;48.154;11.536;2023-03-09T13:03:01;7.60;;;1.10;;
3815;SDS011;1923;48.154;11.536;2023-03-09T13:05:39;6.70;;;0.73;;
3815;SDS011;1923;48.154;11.536;2023-03-09T13:08:22;2.00;;;0.80;;
3815;SDS011;1923;48.154;11.536;2023-03-09T13:13:48;2.20;;;0.70;;
3815;SDS011;1923;48.154;11.536;2023-03-09T13:22:27;3.70;;;1.00;;
3815;SDS011;1923;48.154;11.536;2023-03-09T13:25:22;2.37;;;1.77;;
3815;SDS011;1923;48.154;11.536;2023-03-09T13:28:11;1.57;;;0.80;;
3815;SDS011;1923;48.154;11.536;2023-03-09T13:30:59;9.97;;;1.07;;
3815;SDS011;1923;48.154;11.536;2023-03-09T13:33:33;2.60;;;0.90;;
3815;SDS011;1923;48.154;11.536;2023-03-09T13:36:05;2.33;;;0.87;;
3815;SDS011;1923;48.154;11.536;2023-03-09T13:38:42;2.67;;;0.70;;
3815;SDS011;1923;48.154;11.536;2023-03-09T13:41:15;2.25;;;0.80;;
3815;SDS011;1923;48.154;11.536;2023-03-09T13:43:47;2.47;;;0.70;;
3815;SDS011;1923;48.154;11.536;2023-03-09T13:46:27;1.47;;;0.90;;
3815;SDS011;1923;48.154;11.536;2023-03-09T13:48:59;3.27;;;1.00;;
3815;SDS011;1923;48.154;11.536;2023-03-09T13:51:37;1.23;;;0.70;;
3815;SDS011;1923;48.154;11.536;2023-03-09T13:54:25;1.40;;;0.60;;
3815;SDS011;1923;48.154;11.536;2023-03-09T13:56:59;7.73;;;0.70;;
3815;SDS011;1923;48.154;11.536;2023-03-09T13:59:35;1.90;;;1.00;;
3815;SDS011;1923;48.154;11.536;2023-03-09T14:02:21;2.00;;;0.67;;
3815;SDS011;1923;48.154;11.536;2023-03-09T14:04:55;5.40;;;1.00;;
3815;SDS011;1923;48.154;11.536;2023-03-09T14:07:51;2.38;;;0.63;;
3815;SDS011;1923;48.154;11.536;2023-03-09T14:10:22;3.30;;;0.73;;
3815;SDS011;1923;48.154;11.536;2023-03-09T14:12:53;3.70;;;0.83;;
3815;SDS011;1923;48.154;11.536;2023-03-09T14:15:23;2.57;;;1.20;;
3815;SDS011;1923;48.154;11.536;2023-03-09T14:17:52;1.90;;;0.80;;
3815;SDS011;1923;48.154;11.536;2023-03-09T14:20:23;3.10;;;0.70;;
3815;SDS011;1923;48.154;11.536;2023-03-09T14:22:54;4.50;;;0.90;;
3815;SDS011;1923;48.154;11.536;2023-03-09T14:25:32;2.13;;;0.80;;
3815;SDS011;1923;48.154;11.536;2023-03-09T14:28:00;2.28;;;0.75;;
3815;SDS011;1923;48.154;11.536;2023-03-09T14:30:33;3.13;;;0.97;;
3815;SDS011;1923;48.154;11.536;2023-03-09T14:33:20;5.97;;;1.05;;
3815;SDS011;1923;48.154;11.536;2023-03-09T14:35:50;1.57;;;1.00;;
3815;SDS011;1923;48.154;11.536;2023-03-09T14:38:32;1.83;;;0.90;;
3815;SDS011;1923;48.154;11.536;2023-03-09T14:41:03;1.40;;;0.55;;
3815;SDS011;1923;48.154;11.536;2023-03-09T14:43:33;2.83;;;0.90;;
3815;SDS011;1923;48.154;11.536;2023-03-09T14:46:07;2.47;;;0.70;;
3815;SDS011;1923;48.154;11.536;2023-03-09T14:48:36;2.17;;;0.90;;
3815;SDS011;1923;48.154;11.536;2023-03-09T14:51:07;3.43;;;1.47;;
3815;SDS011;1923;48.154;11.536;2023-03-09T14:53:48;4.57;;;0.93;;
3815;SDS011;1923;48.154;11.536;2023-03-09T14:56:19;6.90;;;1.40;;
3815;SDS011;1923;48.154;11.536;2023-03-09T14:58:47;2.20;;;0.73;;
3815;SDS011;1923;48.154;11.536;2023-03-09T15:01:15;1.40;;;0.67;;
3815;SDS011;1923;48.154;11.536;2023-03-09T15:03:45;1.43;;;0.97;;
3815;SDS011;1923;48.154;11.536;2023-03-09T15:06:13;4.50;;;0.80;;
3815;SDS011;1923;48.154;11.536;2023-03-09T15:08:41;3.20;;;0.90;;
3815;SDS011;1923;48.154;11.536;2023-03-09T15:11:09;1.53;;;0.77;;
3815;SDS011;1923;48.154;11.536;2023-03-09T15:13:39;1.87;;;0.73;;
3815;SDS011;1923;48.154;11.536;2023-03-09T15:16:08;2.37;;;0.77;;
3815;SDS011;1923;48.154;11.536;2023-03-09T15:18:37;5.33;;;1.40;;
3815;SDS011;1923;48.154;11.536;2023-03-09T15:21:05;2.43;;;1.80;;
3815;SDS011;1923;48.154;11.536;2023-03-09T15:23:33;3.50;;;0.90;;
3815;SDS011;1923;48.154;11.536;2023-03-09T15:26:02;2.80;;;0.70;;
3815;SDS011;1923;48.154;11.536;2023-03-09T15:28:31;4.73;;;0.90;;
3815;SDS011;1923;48.154;11.536;2023-03-09T15:31:00;6.90;;;0.90;;
3815;SDS011;1923;48.154;11.536;2023-03-09T15:33:33;2.67;;;1.30;;
3815;SDS011;1923;48.154;11.536;2023-03-09T15:36:04;2.57;;;0.77;;
3815;SDS011;1923;48.154;11.536;2023-03-09T15:38:32;3.90;;;1.30;;
3815;SDS011;1923;48.154;11.536;2023-03-09T15:41:00;2.50;;;0.93;;
3815;SDS011;1923;48.154;11.536;2023-03-09T15:43:31;1.13;;;0.90;;
3815;SDS011;1923;48.154;11.536;2023-03-09T15:46:02;3.23;;;1.50;;
3815;SDS011;1923;48.154;11.536;2023-03-09T15:48:31;2.70;;;0.70;;
3815;SDS011;1923;48.154;11.536;2023-03-09T15:51:00;6.93;;;1.00;;
3815;SDS011;1923;48.154;11.536;2023-03-09T15:53:28;3.17;;;1.43;;
3815;SDS011;1923;48.154;11.536;2023-03-09T15:55:56;7.70;;;0.90;;
3815;SDS011;1923;48.154;11.536;2023-03-09T15:58:25;4.03;;;0.90;;
3815;SDS011;1923;48.154;11.536;2023-03-09T16:00:56;3.47;;;1.00;;
3815;SDS011;1923;48.154;11.536;2023-03-09T16:03:27;2.20;;;0.60;;
3815;SDS011;1923;48.154;11.536;2023-03-09T16:05:56;7.90;;;1.20;;
3815;SDS011;1923;48.154;11.536;2023-03-09T16:08:25;3.23;;;0.60;;
3815;SDS011;1923;48.154;11.536;2023-03-09T16:10:54;1.87;;;1.10;;
3815;SDS011;1923;48.154;11.536;2023-03-09T16:13:22;6.00;;;1.00;;
3815;SDS011;1923;48.154;11.536;2023-03-09T16:15:52;3.73;;;1.00;;
3815;SDS011;1923;48.154;11.536;2023-03-09T16:18:20;2.90;;;1.10;;
3815;SDS011;1923;48.154;11.536;2023-03-09T16:20:50;2.40;;;1.57;;
3815;SDS011;1923;48.154;11.536;2023-03-09T16:23:18;1.47;;;0.90;;
3815;SDS011;1923;48.154;11.536;2023-03-09T16:25:48;2.90;;;1.00;;
3815;SDS011;1923;48.154;11.536;2023-03-09T16:28:17;5.87;;;0.93;;
3815;SDS011;1923;48.154;11.536;2023-03-09T16:30:45;1.53;;;0.80;;
3815;SDS011;1923;48.154;11.536;2023-03-09T16:33:13;2.47;;;0.87;;
3815;SDS011;1923;48.154;11.536;2023-03-09T16:35:41;3.63;;;1.03;;
3815;SDS011;1923;48.154;11.536;2023-03-09T16:38:12;2.90;;;1.07;;
3815;SDS011;1923;48.154;11.536;2023-03-09T16:40:41;2.10;;;0.70;;
3815;SDS011;1923;48.154;11.536;2023-03-09T16:43:09;1.60;;;1.10;;
3815;SDS011;1923;48.154;11.536;2023-03-09T16:45:42;5.43;;;1.43;;
3815;SDS011;1923;48.154;11.536;2023-03-09T16:48:18;3.43;;;0.90;;
3815;SDS011;1923;48.154;11.536;2023-03-09T16:50:46;3.80;;;1.30;;
3815;SDS011;1923;48.154;11.536;2023-03-09T16:53:16;4.60;;;1.27;;
3815;SDS011;1923;48.154;11.536;2023-03-09T16:55:44;8.93;;;1.30;;
3815;SDS011;1923;48.154;11.536;2023-03-09T16:58:12;3.30;;;1.27;;
3815;SDS011;1923;48.154;11.536;2023-03-09T17:00:40;1.53;;;1.27;;
3815;SDS011;1923;48.154;11.536;2023-03-09T17:03:08;2.83;;;0.90;;
3815;SDS011;1923;48.154;11.536;2023-03-09T17:05:39;2.37;;;1.33;;
3815;SDS011;1923;48.154;11.536;2023-03-09T17:08:07;2.20;;;1.10;;
3815;SDS011;1923;48.154;11.536;2023-03-09T17:10:37;3.03;;;1.00;;
3815;SDS011;1923;48.154;11.536;2023-03-09T17:13:07;3.33;;;1.27;;
3815;SDS011;1923;48.154;11.536;2023-03-09T17:15:35;1.00;;;0.83;;
3815;SDS011;1923;48.154;11.536;2023-03-09T17:18:04;6.83;;;0.90;;
3815;SDS011;1923;48.154;11.536;2023-03-09T17:20:32;2.10;;;1.07;;
3815;SDS011;1923;48.154;11.536;2023-03-09T17:23:00;3.70;;;1.67;;
3815;SDS011;1923;48.154;11.536;2023-03-09T17:25:29;1.93;;;1.10;;
3815;SDS011;1923;48.154;11.536;2023-03-09T17:27:59;2.70;;;1.20;;
3815;SDS011;1923;48.154;11.536;2023-03-09T17:30:27;6.90;;;1.57;;
3815;SDS011;1923;48.154;11.536;2023-03-09T17:33:10;2.13;;;1.10;;
3815;SDS011;1923;48.154;11.536;2023-03-09T17:35:38;3.90;;;0.93;;
3815;SDS011;1923;48.154;11.536;2023-03-09T17:38:07;3.30;;;1.30;;
3815;SDS011;1923;48.154;11.536;2023-03-09T17:40:40;3.23;;;1.60;;
3815;SDS011;1923;48.154;11.536;2023-03-09T17:43:10;2.03;;;1.43;;
3815;SDS011;1923;48.154;11.536;2023-03-09T17:45:38;2.10;;;1.30;;
3815;SDS011;1923;48.154;11.536;2023-03-09T17:48:07;1.63;;;1.20;;
3815;SDS011;1923;48.154;11.536;2023-03-09T17:50:36;1.80;;;1.10;;
3815;SDS011;1923;48.154;11.536;2023-03-09T17:53:04;8.73;;;5.13;;
3815;SDS011;1923;48.154;11.536;2023-03-09T17:55:32;2.93;;;1.60;;
3815;SDS011;1923;48.154;11.536;2023-03-09T17:58:00;6.60;;;1.67;;
3815;SDS011;1923;48.154;11.536;2023-03-09T18:00:29;3.10;;;1.50;;
3815;SDS011;1923;48.154;11.536;2023-03-09T18:03:02;2.93;;;1.27;;
3815;SDS011;1923;48.154;11.536;2023-03-09T18:05:32;2.93;;;1.30;;
3815;SDS011;1923;48.154;11.536;2023-03-09T18:08:03;6.23;;;1.37;;
3815;SDS011;1923;48.154;11.536;2023-03-09T18:10:31;9.93;;;2.13;;
3815;SDS011;1923;48.154;11.536;2023-03-09T18:13:01;5.50;;;1.63;;
3815;SDS011;1923;48.154;11.536;2023-03-09T18:15:30;7.50;;;1.63;;
3815;SDS011;1923;48.154;11.536;2023-03-09T18:17:58;6.87;;;2.03;;
3815;SDS011;1923;48.154;11.536;2023-03-09T18:20:27;7.17;;;2.03;;
3815;SDS011;1923;48.154;11.536;2023-03-09T18:22:54;6.80;;;2.30;;
3815;SDS011;1923;48.154;11.536;2023-03-09T18:25:22;4.33;;;1.47;;
3815;SDS011;1923;48.154;11.536;2023-03-09T18:27:51;3.50;;;1.97;;
3815;SDS011;1923;48.154;11.536;2023-03-09T18:30:19;4.60;;;1.60;;
3815;SDS011;1923;48.154;11.536;2023-03-09T18:32:48;5.37;;;1.87;;
3815;SDS011;1923;48.154;11.536;2023-03-09T18:35:17;3.43;;;1.83;;
3815;SDS011;1923;48.154;11.536;2023-03-09T18:37:45;8.40;;;2.27;;
3815;SDS011;1923;48.154;11.536;2023-03-09T18:40:14;5.43;;;2.27;;
3815;SDS011;1923;48.154;11.536;2023-03-09T18:42:43;8.27;;;1.83;;
3815;SDS011;1923;48.154;11.536;2023-03-09T18:45:11;2.63;;;2.07;;
3815;SDS011;1923;48.154;11.536;2023-03-09T18:47:41;9.03;;;2.53;;
3815;SDS011;1923;48.154;11.536;2023-03-09T18:50:11;5.13;;;2.30;;
3815;SDS011;1923;48.154;11.536;2023-03-09T18:52:39;4.17;;;2.23;;
3815;SDS011;1923;48.154;11.536;2023-03-09T18:55:08;7.33;;;2.40;;
3815;SDS011;1923;48.154;11.536;2023-03-09T18:57:37;10.17;;;3.10;;
3815;SDS011;1923;48.154;11.536;2023-03-09T19:00:05;5.50;;;3.10;;
3815;SDS011;1923;48.154;11.536;2023-03-09T19:02:35;12.85;;;3.20;;
3815;SDS011;1923;48.154;11.536;2023-03-09T19:05:03;6.23;;;2.60;;
3815;SDS011;1923;48.154;11.536;2023-03-09T19:07:34;5.43;;;2.63;;
3815;SDS011;1923;48.154;11.536;2023-03-09T19:10:02;5.20;;;2.77;;
3815;SDS011;1923;48.154;11.536;2023-03-09T19:12:30;4.43;;;2.83;;
3815;SDS011;1923;48.154;11.536;2023-03-09T19:14:58;14.43;;;2.93;;
3815;SDS011;1923;48.154;11.536;2023-03-09T19:17:26;8.10;;;2.70;;
3815;SDS011;1923;48.154;11.536;2023-03-09T19:19:54;4.90;;;2.43;;
3815;SDS011;1923;48.154;11.536;2023-03-09T19:22:22;2.53;;;2.27;;
3815;SDS011;1923;48.154;11.536;2023-03-09T19:24:52;11.13;;;3.27;;
3815;SDS011;1923;48.154;11.536;2023-03-09T19:27:20;5.80;;;2.77;;
3815;SDS011;1923;48.154;11.536;2023-03-09T19:29:48;4.37;;;3.27;;
3815;SDS011;1923;48.154;11.536;2023-03-09T19:32:16;5.10;;;2.60;;
3815;SDS011;1923;48.154;11.536;2023-03-09T19:34:44;8.73;;;2.37;;
3815;SDS011;1923;48.154;11.536;2023-03-09T19:37:12;6.20;;;2.70;;
3815;SDS011;1923;48.154;11.536;2023-03-09T19:39:40;4.60;;;2.50;;
3815;SDS011;1923;48.154;11.536;2023-03-09T19:42:10;9.23;;;2.60;;
3815;SDS011;1923;48.154;11.536;2023-03-09T19:44:37;7.20;;;2.20;;
3815;SDS011;1923;48.154;11.536;2023-03-09T19:47:09;4.77;;;2.57;;
3815;SDS011;1923;48.154;11.536;2023-03-09T19:49:37;11.00;;;2.43;;
3815;SDS011;1923;48.154;11.536;2023-03-09T19:52:06;3.93;;;2.67;;
3815;SDS011;1923;48.154;11.536;2023-03-09T19:54:34;4.43;;;2.77;;
3815;SDS011;1923;48.154;11.536;2023-03-09T19:57:01;5.40;;;2.57;;
3815;SDS011;1923;48.154;11.536;2023-03-09T19:59:32;4.87;;;2.73;;
3815;SDS011;1923;48.154;11.536;2023-03-09T20:02:03;4.80;;;2.63;;
3815;SDS011;1923;48.154;11.536;2023-03-09T20:04:31;6.27;;;2.43;;
3815;SDS011;1923;48.154;11.536;2023-03-09T20:06:59;5.73;;;2.50;;
3815;SDS011;1923;48.154;11.536;2023-03-09T20:09:27;9.87;;;2.67;;
3815;SDS011;1923;48.154;11.536;2023-03-09T20:11:56;6.27;;;3.70;;
3815;SDS011;1923;48.154;11.536;2023-03-09T20:14:24;6.03;;;2.80;;
3815;SDS011;1923;48.154;11.536;2023-03-09T20:16:55;6.70;;;2.67;;
3815;SDS011;1923;48.154;11.536;2023-03-09T20:19:24;7.53;;;2.50;;
3815;SDS011;1923;48.154;11.536;2023-03-09T20:21:54;9.77;;;2.20;;
3815;SDS011;1923;48.154;11.536;2023-03-09T20:24:22;6.53;;;1.97;;
3815;SDS011;1923;48.154;11.536;2023-03-09T20:26:50;4.70;;;2.80;;
3815;SDS011;1923;48.154;11.536;2023-03-09T20:29:18;5.83;;;2.27;;
3815;SDS011;1923;48.154;11.536;2023-03-09T20:31:48;8.27;;;2.80;;
3815;SDS011;1923;48.154;11.536;2023-03-09T20:34:18;7.03;;;1.97;;
3815;SDS011;1923;48.154;11.536;2023-03-09T20:36:47;4.47;;;2.10;;
3815;SDS011;1923;48.154;11.536;2023-03-09T20:39:16;3.00;;;2.03;;
3815;SDS011;1923;48.154;11.536;2023-03-09T20:41:44;8.57;;;3.03;;
3815;SDS011;1923;48.154;11.536;2023-03-09T20:44:12;4.13;;;2.00;;
3815;SDS011;1923;48.154;11.536;2023-03-09T20:46:40;4.27;;;2.40;;
3815;SDS011;1923;48.154;11.536;2023-03-09T20:49:08;4.32;;;2.10;;
3815;SDS011;1923;48.154;11.536;2023-03-09T20:51:38;6.80;;;2.70;;
3815;SDS011;1923;48.154;11.536;2023-03-09T20:54:06;8.93;;;2.83;;
3815;SDS011;1923;48.154;11.536;2023-03-09T20:56:34;6.37;;;2.57;;
3815;SDS011;1923;48.154;11.536;2023-03-09T20:59:02;5.83;;;2.20;;
3815;SDS011;1923;48.154;11.536;2023-03-09T21:01:30;9.53;;;2.67;;
3815;SDS011;1923;48.154;11.536;2023-03-09T21:03:59;9.73;;;2.83;;
3815;SDS011;1923;48.154;11.536;2023-03-09T21:06:27;5.67;;;2.60;;
3815;SDS011;1923;48.154;11.536;2023-03-09T21:08:56;3.70;;;2.50;;
3815;SDS011;1923;48.154;11.536;2023-03-09T21:11:26;5.30;;;2.77;;
3815;SDS011;1923;48.154;11.536;2023-03-09T21:13:58;3.20;;;1.90;;
3815;SDS011;1923;48.154;11.536;2023-03-09T21:16:29;12.27;;;2.50;;
3815;SDS011;1923;48.154;11.536;2023-03-09T21:18:57;5.43;;;2.83;;
3815;SDS011;1923;48.154;11.536;2023-03-09T21:21:25;4.83;;;2.50;;
3815;SDS011;1923;48.154;11.536;2023-03-09T21:23:53;5.50;;;2.37;;
3815;SDS011;1923;48.154;11.536;2023-03-09T21:26:23;3.30;;;2.07;;
3815;SDS011;1923;48.154;11.536;2023-03-09T21:28:51;4.30;;;2.60;;
3815;SDS011;1923;48.154;11.536;2023-03-09T21:31:21;5.60;;;2.50;;
3815;SDS011;1923;48.154;11.536;2023-03-09T21:33:50;5.17;;;2.73;;
3815;SDS011;1923;48.154;11.536;2023-03-09T21:36:18;7.23;;;2.47;;
3815;SDS011;1923;48.154;11.536;2023-03-09T21:38:48;5.00;;;2.70;;
3815;SDS011;1923;48.154;11.536;2023-03-09T21:41:17;6.50;;;2.53;;
3815;SDS011;1923;48.154;11.536;2023-03-09T21:43:46;7.43;;;2.33;;
3815;SDS011;1923;48.154;11.536;2023-03-09T21:46:17;4.83;;;2.50;;
3815;SDS011;1923;48.154;11.536;2023-03-09T21:48:46;7.43;;;2.50;;
3815;SDS011;1923;48.154;11.536;2023-03-09T21:51:15;6.87;;;2.40;;
3815;SDS011;1923;48.154;11.536;2023-03-09T21:53:43;8.80;;;2.73;;
3815;SDS011;1923;48.154;11.536;2023-03-09T21:56:12;8.60;;;2.87;;
3815;SDS011;1923;48.154;11.536;2023-03-09T21:58:40;8.30;;;2.47;;
3815;SDS011;1923;48.154;11.536;2023-03-09T22:01:10;6.10;;;2.43;;
3815;SDS011;1923;48.154;11.536;2023-03-09T22:03:41;3.80;;;2.07;;
3815;SDS011;1923;48.154;11.536;2023-03-09T22:06:14;5.57;;;2.67;;
3815;SDS011;1923;48.154;11.536;2023-03-09T22:08:43;7.13;;;3.10;;
3815;SDS011;1923;48.154;11.536;2023-03-09T22:11:12;4.20;;;2.40;;
3815;SDS011;1923;48.154;11.536;2023-03-09T22:13:40;2.20;;;1.90;;
3815;SDS011;1923;48.154;11.536;2023-03-09T22:16:15;4.90;;;2.37;;
3815;SDS011;1923;48.154;11.536;2023-03-09T22:18:44;7.00;;;2.30;;
3815;SDS011;1923;48.154;11.536;2023-03-09T22:21:12;4.33;;;2.50;;
3815;SDS011;1923;48.154;11.536;2023-03-09T22:23:41;7.17;;;2.80;;
3815;SDS011;1923;48.154;11.536;2023-03-09T22:26:09;6.20;;;2.47;;
3815;SDS011;1923;48.154;11.536;2023-03-09T22:28:39;10.43;;;2.90;;
3815;SDS011;1923;48.154;11.536;2023-03-09T22:31:09;4.83;;;2.40;;
3815;SDS011;1923;48.154;11.536;2023-03-09T22:33:39;6.00;;;2.47;;
3815;SDS011;1923;48.154;11.536;2023-03-09T22:36:08;4.83;;;2.57;;
3815;SDS011;1923;48.154;11.536;2023-03-09T22:38:38;3.63;;;2.33;;
3815;SDS011;1923;48.154;11.536;2023-03-09T22:41:07;5.40;;;2.70;;
3815;SDS011;1923;48.154;11.536;2023-03-09T22:43:36;5.97;;;3.47;;
3815;SDS011;1923;48.154;11.536;2023-03-09T22:46:05;5.40;;;2.57;;
3815;SDS011;1923;48.154;11.536;2023-03-09T22:48:35;5.40;;;2.50;;
3815;SDS011;1923;48.154;11.536;2023-03-09T22:51:05;3.47;;;2.40;;
3815;SDS011;1923;48.154;11.536;2023-03-09T22:53:35;4.03;;;2.10;;
3815;SDS011;1923;48.154;11.536;2023-03-09T22:56:04;4.60;;;2.57;;
3815;SDS011;1923;48.154;11.536;2023-03-09T22:58:34;1.87;;;1.60;;
3815;SDS011;1923;48.154;11.536;2023-03-09T23:01:03;5.30;;;2.50;;
3815;SDS011;1923;48.154;11.536;2023-03-09T23:03:31;3.70;;;2.40;;
3815;SDS011;1923;48.154;11.536;2023-03-09T23:06:02;7.90;;;3.43;;
3815;SDS011;1923;48.154;11.536;2023-03-09T23:08:32;5.87;;;3.63;;
3815;SDS011;1923;48.154;11.536;2023-03-09T23:11:00;3.70;;;2.83;;
3815;SDS011;1923;48.154;11.536;2023-03-09T23:13:28;5.72;;;1.65;;
3815;SDS011;1923;48.154;11.536;2023-03-09T23:15:57;4.13;;;2.07;;
3815;SDS011;1923;48.154;11.536;2023-03-09T23:18:34;5.63;;;1.97;;
3815;SDS011;1923;48.154;11.536;2023-03-09T23:21:05;3.37;;;1.83;;
3815;SDS011;1923;48.154;11.536;2023-03-09T23:23:34;2.33;;;1.40;;
3815;SDS011;1923;48.154;11.536;2023-03-09T23:26:03;6.53;;;2.53;;
3815;SDS011;1923;48.154;11.536;2023-03-09T23:28:32;3.07;;;1.73;;
3815;SDS011;1923;48.154;11.536;2023-03-09T23:31:03;1.90;;;1.30;;
3815;SDS011;1923;48.154;11.536;2023-03-09T23:33:32;1.83;;;1.70;;
3815;SDS011;1923;48.154;11.536;2023-03-09T23:36:00;1.90;;;1.40;;
3815;SDS011;1923;48.154;11.536;2023-03-09T23:38:30;1.90;;;1.70;;
3815;SDS011;1923;48.154;11.536;2023-03-09T23:40:59;1.83;;;1.40;;
3815;SDS011;1923;48.154;11.536;2023-03-09T23:43:27;3.03;;;1.60;;
3815;SDS011;1923;48.154;11.536;2023-03-09T23:46:00;2.47;;;1.60;;
3815;SDS011;1923;48.154;11.536;2023-03-09T23:48:29;6.57;;;1.60;;
3815;SDS011;1923;48.154;11.536;2023-03-09T23:50:57;3.40;;;1.40;;
3815;SDS011;1923;48.154;11.536;2023-03-09T23:53:25;2.77;;;1.40;;
3815;SDS011;1923;48.154;11.536;2023-03-09T23:55:55;1.97;;;1.37;;
3815;SDS011;1923;48.154;11.536;2023-03-09T23:58:24;1.97;;;1.50;;
